NVD802 EYVI-EYVI
Flight info
| Callsign | NVD802 |
|---|---|
| Flight time | N/A |
| Altitude | 2000 |
| Route | ELEKA DCT BILDI |
| Aircraft | A320/M-SDE3FGHIRWY/LB1 |
Departure
| Time | 2026-04-28 20:41 |
|---|---|
| Airport | Vilnius International Airport (EYVI) |
Arrival
| Time | N/A |
|---|---|
| Airport | Vilnius International Airport (EYVI) |
| Time | Latitude | Longitude | Altitude | Speed | Heading |
|---|---|---|---|---|---|
| 2026-04-28 20:14 | 54.64604 | 25.28701 | 655 ft | 0 kts | 349° |
| 2026-04-28 20:16 | 54.64603 | 25.28701 | 655 ft | 0 kts | 349° |
| 2026-04-28 20:32 | 54.64580 | 25.28711 | 661 ft | 4 kts | 339° |
| 2026-04-28 20:32 | 54.64556 | 25.28732 | 661 ft | 4 kts | 311° |
| 2026-04-28 20:32 | 54.64548 | 25.28764 | 662 ft | 1 kts | 259° |
| 2026-04-28 20:32 | 54.64549 | 25.28772 | 662 ft | 1 kts | 259° |
| 2026-04-28 20:36 | 54.64548 | 25.28763 | 662 ft | 3 kts | 259° |
| 2026-04-28 20:36 | 54.64538 | 25.28680 | 657 ft | 11 kts | 259° |
| 2026-04-28 20:37 | 54.64468 | 25.28620 | 653 ft | 16 kts | 171° |
| 2026-04-28 20:37 | 54.64342 | 25.28662 | 650 ft | 21 kts | 173° |
| 2026-04-28 20:37 | 54.64223 | 25.28680 | 649 ft | 21 kts | 172° |
| 2026-04-28 20:37 | 54.64073 | 25.28711 | 645 ft | 16 kts | 180° |
| 2026-04-28 20:38 | 54.63945 | 25.28633 | 638 ft | 24 kts | 201° |
| 2026-04-28 20:38 | 54.63760 | 25.28515 | 627 ft | 33 kts | 200° |
| 2026-04-28 20:38 | 54.63565 | 25.28380 | 615 ft | 30 kts | 202° |
| 2026-04-28 20:38 | 54.63353 | 25.28225 | 616 ft | 36 kts | 204° |
| 2026-04-28 20:39 | 54.63104 | 25.28049 | 608 ft | 43 kts | 201° |
| 2026-04-28 20:39 | 54.62806 | 25.27847 | 601 ft | 49 kts | 200° |
| 2026-04-28 20:39 | 54.62563 | 25.27678 | 603 ft | 19 kts | 201° |
| 2026-04-28 20:39 | 54.62485 | 25.27700 | 605 ft | 7 kts | 141° |
| 2026-04-28 20:40 | 54.62439 | 25.27763 | 612 ft | 10 kts | 142° |
| 2026-04-28 20:40 | 54.62403 | 25.27886 | 605 ft | 11 kts | 77° |
| 2026-04-28 20:40 | 54.62457 | 25.27915 | 603 ft | 11 kts | 26° |
| 2026-04-28 20:40 | 54.62479 | 25.27933 | 602 ft | 7 kts | 26° |
| 2026-04-28 20:41 | 54.62699 | 25.28082 | 599 ft | 76 kts | 22° |
| 2026-04-28 20:41 | 54.63417 | 25.28558 | 628 ft | 142 kts | 19° |
| 2026-04-28 20:41 | 54.64340 | 25.29252 | 1369 ft | 143 kts | 21° |
| 2026-04-28 20:41 | 54.65280 | 25.29948 | 2063 ft | 158 kts | 19° |
| 2026-04-28 20:42 | 54.66295 | 25.30678 | 1996 ft | 155 kts | 18° |
| 2026-04-28 20:42 | 54.67323 | 25.31387 | 1945 ft | 163 kts | 18° |
| 2026-04-28 20:42 | 54.68389 | 25.32110 | 2006 ft | 166 kts | 18° |
| 2026-04-28 20:42 | 54.69460 | 25.32870 | 2132 ft | 166 kts | 19° |
| 2026-04-28 20:43 | 54.70542 | 25.33696 | 2224 ft | 166 kts | 21° |
| 2026-04-28 20:43 | 54.71589 | 25.34262 | 2178 ft | 163 kts | 359° |
| 2026-04-28 20:43 | 54.72631 | 25.33674 | 2044 ft | 162 kts | 322° |
| 2026-04-28 20:43 | 54.73194 | 25.31974 | 1988 ft | 173 kts | 284° |
| 2026-04-28 20:44 | 54.72988 | 25.29862 | 2028 ft | 189 kts | 247° |
| 2026-04-28 20:44 | 54.72049 | 25.28233 | 2030 ft | 199 kts | 211° |
| 2026-04-28 20:44 | 54.70762 | 25.27283 | 1988 ft | 202 kts | 206° |
| 2026-04-28 20:44 | 54.69453 | 25.26387 | 1985 ft | 202 kts | 205° |
| 2026-04-28 20:45 | 54.68139 | 25.25509 | 1981 ft | 201 kts | 205° |
| 2026-04-28 20:45 | 54.66882 | 25.24642 | 1973 ft | 194 kts | 206° |
| 2026-04-28 20:45 | 54.65645 | 25.23749 | 1956 ft | 192 kts | 205° |
| 2026-04-28 20:45 | 54.64406 | 25.22899 | 1938 ft | 191 kts | 205° |
| 2026-04-28 20:46 | 54.63171 | 25.22088 | 1962 ft | 185 kts | 204° |
| 2026-04-28 20:46 | 54.62043 | 25.21362 | 2072 ft | 163 kts | 205° |
| 2026-04-28 20:46 | 54.61002 | 25.20689 | 1968 ft | 156 kts | 204° |
| 2026-04-28 20:46 | 54.59997 | 25.20079 | 1860 ft | 151 kts | 199° |
| 2026-04-28 20:47 | 54.58961 | 25.20081 | 1761 ft | 150 kts | 160° |
| 2026-04-28 20:47 | 54.58134 | 25.21069 | 1666 ft | 143 kts | 121° |
| 2026-04-28 20:47 | 54.57798 | 25.22602 | 1594 ft | 134 kts | 87° |
| 2026-04-28 20:47 | 54.57920 | 25.24138 | 1486 ft | 127 kts | 61° |
| 2026-04-28 20:48 | 54.58461 | 25.25210 | 1366 ft | 120 kts | 22° |
| 2026-04-28 20:48 | 54.59248 | 25.25683 | 1235 ft | 121 kts | 19° |
| 2026-04-28 20:48 | 54.60030 | 25.26239 | 1101 ft | 122 kts | 18° |
| 2026-04-28 20:48 | 54.60818 | 25.26774 | 934 ft | 121 kts | 18° |
| 2026-04-28 20:49 | 54.61601 | 25.27330 | 775 ft | 122 kts | 19° |
| 2026-04-28 20:49 | 54.62389 | 25.27864 | 630 ft | 122 kts | 20° |
| 2026-04-28 20:49 | 54.63123 | 25.28358 | 609 ft | 104 kts | 23° |
| 2026-04-28 20:49 | 54.63903 | 25.28897 | 667 ft | 153 kts | 18° |
| 2026-04-28 20:50 | 54.64947 | 25.29669 | 1582 ft | 175 kts | 21° |
| 2026-04-28 20:50 | 54.66228 | 25.30652 | 1921 ft | 225 kts | 21° |
| 2026-04-28 20:50 | 54.67629 | 25.31746 | 1931 ft | 212 kts | 21° |
| 2026-04-28 20:50 | 54.68916 | 25.32784 | 1858 ft | 200 kts | 22° |
| 2026-04-28 20:51 | 54.70154 | 25.33804 | 1650 ft | 194 kts | 22° |
| 2026-04-28 20:51 | 54.71343 | 25.34329 | 1972 ft | 178 kts | 328° |
| 2026-04-28 20:51 | 54.71875 | 25.32158 | 2047 ft | 275 kts | 243° |
| 2026-04-28 20:51 | 54.70754 | 25.30937 | 2303 ft | 310 kts | 204° |
| 2026-04-28 20:52 | 54.68583 | 25.27222 | 1913 ft | 318 kts | 244° |
| 2026-04-28 20:52 | 54.68775 | 25.24215 | 2172 ft | 241 kts | 351° |
| 2026-04-28 20:52 | 54.70010 | 25.25014 | 3549 ft | 138 kts | 28° |
| 2026-04-28 20:52 | 54.70699 | 25.25812 | 3998 ft | 137 kts | 34° |
| 2026-04-28 20:53 | 54.71791 | 25.28954 | 2819 ft | 190 kts | 98° |
| 2026-04-28 20:53 | 54.71486 | 25.30059 | 2382 ft | 213 kts | 129° |
| 2026-04-28 22:08 | 54.70892 | 25.31066 | 1846 ft | 232 kts | 139° |
| 2026-04-28 22:08 | 54.69458 | 25.31039 | 1685 ft | 236 kts | 236° |
| 2026-04-28 22:09 | 54.68760 | 25.28036 | 1003 ft | 296 kts | 245° |
| 2026-04-28 22:09 | 54.67611 | 25.25869 | 1276 ft | 264 kts | 249° |
| 2026-04-28 22:09 | 54.67905 | 25.23953 | 3001 ft | 122 kts | 338° |
| 2026-04-28 22:09 | 54.68553 | 25.23807 | 2823 ft | 118 kts | 9° |
| 2026-04-28 22:10 | 54.69432 | 25.24833 | 1064 ft | 242 kts | 47° |
| 2026-04-28 22:10 | 54.69460 | 25.27567 | 902 ft | 268 kts | 118° |
| 2026-04-28 22:10 | 54.68489 | 25.30447 | 1248 ft | 265 kts | 121° |
| 2026-04-28 22:10 | 54.67319 | 25.32567 | 1562 ft | 230 kts | 165° |
| 2026-04-28 22:11 | 54.66116 | 25.31665 | 1406 ft | 183 kts | 245° |
| 2026-04-28 22:11 | 54.65410 | 25.30158 | 1468 ft | 157 kts | 227° |